sensor_id;sensor_type;location;lat;lon;timestamp;P1;durP1;ratioP1;P2;durP2;ratioP2
44766;SDS011;30487;48.716;9.272;2023-07-20T00:01:15;4.75;;;1.70;;
44766;SDS011;30487;48.716;9.272;2023-07-20T00:03:41;3.47;;;1.70;;
44766;SDS011;30487;48.716;9.272;2023-07-20T00:06:06;3.88;;;1.80;;
44766;SDS011;30487;48.716;9.272;2023-07-20T00:08:32;4.32;;;1.40;;
44766;SDS011;30487;48.716;9.272;2023-07-20T00:10:58;6.10;;;1.60;;
44766;SDS011;30487;48.716;9.272;2023-07-20T00:13:23;4.78;;;1.88;;
44766;SDS011;30487;48.716;9.272;2023-07-20T00:15:51;3.40;;;1.52;;
44766;SDS011;30487;48.716;9.272;2023-07-20T00:18:17;3.83;;;1.77;;
44766;SDS011;30487;48.716;9.272;2023-07-20T00:20:42;5.38;;;1.88;;
44766;SDS011;30487;48.716;9.272;2023-07-20T00:23:08;4.97;;;1.52;;
44766;SDS011;30487;48.716;9.272;2023-07-20T00:25:34;3.17;;;1.60;;
44766;SDS011;30487;48.716;9.272;2023-07-20T00:28:00;3.13;;;1.50;;
44766;SDS011;30487;48.716;9.272;2023-07-20T00:30:26;4.07;;;1.67;;
44766;SDS011;30487;48.716;9.272;2023-07-20T00:32:52;3.25;;;1.70;;
44766;SDS011;30487;48.716;9.272;2023-07-20T00:35:17;3.65;;;1.60;;
44766;SDS011;30487;48.716;9.272;2023-07-20T00:37:43;3.30;;;1.55;;
44766;SDS011;30487;48.716;9.272;2023-07-20T00:40:09;5.15;;;1.67;;
44766;SDS011;30487;48.716;9.272;2023-07-20T00:42:34;2.92;;;1.35;;
44766;SDS011;30487;48.716;9.272;2023-07-20T00:45:00;3.55;;;1.63;;
44766;SDS011;30487;48.716;9.272;2023-07-20T00:47:26;3.42;;;1.63;;
44766;SDS011;30487;48.716;9.272;2023-07-20T00:49:52;4.50;;;1.73;;
44766;SDS011;30487;48.716;9.272;2023-07-20T00:52:19;7.40;;;2.00;;
44766;SDS011;30487;48.716;9.272;2023-07-20T00:54:46;9.00;;;1.65;;
44766;SDS011;30487;48.716;9.272;2023-07-20T00:57:14;3.88;;;1.85;;
44766;SDS011;30487;48.716;9.272;2023-07-20T00:59:40;2.78;;;1.60;;
44766;SDS011;30487;48.716;9.272;2023-07-20T01:02:06;3.08;;;1.50;;
44766;SDS011;30487;48.716;9.272;2023-07-20T01:04:32;4.00;;;1.88;;
44766;SDS011;30487;48.716;9.272;2023-07-20T01:07:12;3.13;;;1.83;;
44766;SDS011;30487;48.716;9.272;2023-07-20T01:09:52;4.28;;;1.73;;
44766;SDS011;30487;48.716;9.272;2023-07-20T01:12:30;5.00;;;1.77;;
44766;SDS011;30487;48.716;9.272;2023-07-20T01:15:04;2.90;;;1.50;;
44766;SDS011;30487;48.716;9.272;2023-07-20T01:17:32;4.28;;;1.90;;
44766;SDS011;30487;48.716;9.272;2023-07-20T01:19:58;5.28;;;1.65;;
44766;SDS011;30487;48.716;9.272;2023-07-20T01:22:33;4.95;;;2.05;;
44766;SDS011;30487;48.716;9.272;2023-07-20T01:34:01;8.38;;;1.90;;
44766;SDS011;30487;48.716;9.272;2023-07-20T01:36:30;6.05;;;1.60;;
44766;SDS011;30487;48.716;9.272;2023-07-20T01:38:58;4.63;;;1.75;;
44766;SDS011;30487;48.716;9.272;2023-07-20T01:41:24;2.95;;;1.67;;
44766;SDS011;30487;48.716;9.272;2023-07-20T01:43:50;5.30;;;1.90;;
44766;SDS011;30487;48.716;9.272;2023-07-20T01:46:15;4.45;;;1.73;;
44766;SDS011;30487;48.716;9.272;2023-07-20T01:48:41;3.72;;;1.77;;
44766;SDS011;30487;48.716;9.272;2023-07-20T01:51:07;5.05;;;1.80;;
44766;SDS011;30487;48.716;9.272;2023-07-20T01:53:32;12.07;;;1.85;;
44766;SDS011;30487;48.716;9.272;2023-07-20T01:55:58;6.88;;;1.80;;
44766;SDS011;30487;48.716;9.272;2023-07-20T01:58:24;4.35;;;1.67;;
44766;SDS011;30487;48.716;9.272;2023-07-20T02:00:49;3.17;;;1.45;;
44766;SDS011;30487;48.716;9.272;2023-07-20T02:03:15;5.60;;;1.90;;
44766;SDS011;30487;48.716;9.272;2023-07-20T02:05:43;3.83;;;1.80;;
44766;SDS011;30487;48.716;9.272;2023-07-20T02:08:09;4.57;;;1.70;;
44766;SDS011;30487;48.716;9.272;2023-07-20T02:10:35;3.97;;;1.60;;
44766;SDS011;30487;48.716;9.272;2023-07-20T02:13:01;4.13;;;1.77;;
44766;SDS011;30487;48.716;9.272;2023-07-20T02:15:26;4.53;;;2.00;;
44766;SDS011;30487;48.716;9.272;2023-07-20T02:17:53;6.85;;;1.80;;
44766;SDS011;30487;48.716;9.272;2023-07-20T02:20:19;3.75;;;1.83;;
44766;SDS011;30487;48.716;9.272;2023-07-20T02:22:44;4.93;;;1.50;;
44766;SDS011;30487;48.716;9.272;2023-07-20T02:25:10;3.97;;;1.63;;
44766;SDS011;30487;48.716;9.272;2023-07-20T02:27:36;2.92;;;1.70;;
44766;SDS011;30487;48.716;9.272;2023-07-20T02:30:03;4.82;;;1.55;;
44766;SDS011;30487;48.716;9.272;2023-07-20T02:32:30;8.20;;;2.00;;
44766;SDS011;30487;48.716;9.272;2023-07-20T02:34:56;5.15;;;1.88;;
44766;SDS011;30487;48.716;9.272;2023-07-20T02:37:22;2.78;;;1.70;;
44766;SDS011;30487;48.716;9.272;2023-07-20T02:39:48;3.83;;;1.80;;
44766;SDS011;30487;48.716;9.272;2023-07-20T02:42:13;4.43;;;2.20;;
44766;SDS011;30487;48.716;9.272;2023-07-20T02:44:39;4.97;;;1.80;;
44766;SDS011;30487;48.716;9.272;2023-07-20T02:47:05;3.40;;;1.90;;
44766;SDS011;30487;48.716;9.272;2023-07-20T02:49:30;6.00;;;1.73;;
44766;SDS011;30487;48.716;9.272;2023-07-20T02:51:56;5.00;;;2.00;;
44766;SDS011;30487;48.716;9.272;2023-07-20T02:54:22;4.68;;;1.90;;
44766;SDS011;30487;48.716;9.272;2023-07-20T02:56:47;4.57;;;1.92;;
44766;SDS011;30487;48.716;9.272;2023-07-20T02:59:13;4.72;;;1.83;;
44766;SDS011;30487;48.716;9.272;2023-07-20T03:01:38;5.15;;;1.90;;
44766;SDS011;30487;48.716;9.272;2023-07-20T03:04:04;6.50;;;2.67;;
44766;SDS011;30487;48.716;9.272;2023-07-20T03:06:29;4.75;;;1.70;;
44766;SDS011;30487;48.716;9.272;2023-07-20T03:08:55;5.22;;;1.85;;
44766;SDS011;30487;48.716;9.272;2023-07-20T03:11:21;4.65;;;1.70;;
44766;SDS011;30487;48.716;9.272;2023-07-20T03:13:47;3.53;;;1.90;;
44766;SDS011;30487;48.716;9.272;2023-07-20T03:16:13;3.33;;;1.95;;
44766;SDS011;30487;48.716;9.272;2023-07-20T03:18:41;3.65;;;1.77;;
44766;SDS011;30487;48.716;9.272;2023-07-20T03:21:07;3.70;;;1.67;;
44766;SDS011;30487;48.716;9.272;2023-07-20T03:23:33;5.07;;;1.60;;
44766;SDS011;30487;48.716;9.272;2023-07-20T03:26:00;5.88;;;1.83;;
44766;SDS011;30487;48.716;9.272;2023-07-20T03:28:25;3.08;;;1.75;;
44766;SDS011;30487;48.716;9.272;2023-07-20T03:30:55;3.45;;;1.52;;
44766;SDS011;30487;48.716;9.272;2023-07-20T03:33:28;4.30;;;1.75;;
44766;SDS011;30487;48.716;9.272;2023-07-20T03:35:55;2.58;;;1.50;;
44766;SDS011;30487;48.716;9.272;2023-07-20T03:38:21;3.75;;;1.67;;
44766;SDS011;30487;48.716;9.272;2023-07-20T03:43:16;4.32;;;1.70;;
44766;SDS011;30487;48.716;9.272;2023-07-20T03:45:42;2.70;;;1.50;;
44766;SDS011;30487;48.716;9.272;2023-07-20T03:48:07;3.20;;;1.80;;
44766;SDS011;30487;48.716;9.272;2023-07-20T03:50:33;2.30;;;1.38;;
44766;SDS011;30487;48.716;9.272;2023-07-20T03:52:58;3.33;;;1.70;;
44766;SDS011;30487;48.716;9.272;2023-07-20T03:55:24;5.35;;;1.65;;
44766;SDS011;30487;48.716;9.272;2023-07-20T03:57:50;4.13;;;1.60;;
44766;SDS011;30487;48.716;9.272;2023-07-20T04:00:16;6.68;;;1.60;;
44766;SDS011;30487;48.716;9.272;2023-07-20T04:02:42;5.55;;;1.75;;
44766;SDS011;30487;48.716;9.272;2023-07-20T04:05:08;3.38;;;1.77;;
44766;SDS011;30487;48.716;9.272;2023-07-20T04:07:33;3.63;;;1.80;;
44766;SDS011;30487;48.716;9.272;2023-07-20T04:09:59;6.05;;;1.65;;
44766;SDS011;30487;48.716;9.272;2023-07-20T04:12:24;4.13;;;1.80;;
44766;SDS011;30487;48.716;9.272;2023-07-20T04:14:50;3.50;;;1.65;;
44766;SDS011;30487;48.716;9.272;2023-07-20T04:17:15;3.95;;;1.83;;
44766;SDS011;30487;48.716;9.272;2023-07-20T04:19:41;3.17;;;1.48;;
44766;SDS011;30487;48.716;9.272;2023-07-20T04:22:07;4.00;;;1.92;;
44766;SDS011;30487;48.716;9.272;2023-07-20T04:24:33;2.45;;;1.60;;
44766;SDS011;30487;48.716;9.272;2023-07-20T04:26:58;5.25;;;1.90;;
44766;SDS011;30487;48.716;9.272;2023-07-20T04:29:24;3.88;;;1.73;;
44766;SDS011;30487;48.716;9.272;2023-07-20T04:31:49;5.80;;;1.95;;
44766;SDS011;30487;48.716;9.272;2023-07-20T04:34:15;5.13;;;2.00;;
44766;SDS011;30487;48.716;9.272;2023-07-20T04:36:40;5.38;;;1.80;;
44766;SDS011;30487;48.716;9.272;2023-07-20T04:39:06;3.35;;;1.63;;
44766;SDS011;30487;48.716;9.272;2023-07-20T04:41:33;3.97;;;1.70;;
44766;SDS011;30487;48.716;9.272;2023-07-20T04:43:59;4.00;;;2.03;;
44766;SDS011;30487;48.716;9.272;2023-07-20T04:46:24;3.80;;;1.98;;
44766;SDS011;30487;48.716;9.272;2023-07-20T04:48:50;5.32;;;2.00;;
44766;SDS011;30487;48.716;9.272;2023-07-20T04:51:15;4.90;;;1.80;;
44766;SDS011;30487;48.716;9.272;2023-07-20T04:53:45;2.65;;;1.73;;
44766;SDS011;30487;48.716;9.272;2023-07-20T04:56:11;4.75;;;1.67;;
44766;SDS011;30487;48.716;9.272;2023-07-20T04:58:37;6.20;;;2.03;;
44766;SDS011;30487;48.716;9.272;2023-07-20T05:01:03;4.63;;;1.80;;
44766;SDS011;30487;48.716;9.272;2023-07-20T05:03:28;4.05;;;2.10;;
44766;SDS011;30487;48.716;9.272;2023-07-20T05:05:54;4.38;;;2.00;;
44766;SDS011;30487;48.716;9.272;2023-07-20T05:08:20;3.45;;;1.58;;
44766;SDS011;30487;48.716;9.272;2023-07-20T05:10:47;5.18;;;1.73;;
44766;SDS011;30487;48.716;9.272;2023-07-20T05:13:12;4.35;;;1.60;;
44766;SDS011;30487;48.716;9.272;2023-07-20T05:15:38;4.93;;;1.95;;
44766;SDS011;30487;48.716;9.272;2023-07-20T05:18:04;3.58;;;1.85;;
44766;SDS011;30487;48.716;9.272;2023-07-20T05:20:30;3.53;;;1.73;;
44766;SDS011;30487;48.716;9.272;2023-07-20T05:22:56;3.78;;;1.63;;
44766;SDS011;30487;48.716;9.272;2023-07-20T05:25:22;4.35;;;1.73;;
44766;SDS011;30487;48.716;9.272;2023-07-20T05:27:48;3.83;;;1.70;;
44766;SDS011;30487;48.716;9.272;2023-07-20T05:30:14;4.65;;;2.00;;
44766;SDS011;30487;48.716;9.272;2023-07-20T05:32:39;3.78;;;1.60;;
44766;SDS011;30487;48.716;9.272;2023-07-20T05:35:05;5.10;;;1.95;;
44766;SDS011;30487;48.716;9.272;2023-07-20T05:37:31;5.90;;;1.75;;
44766;SDS011;30487;48.716;9.272;2023-07-20T05:39:57;4.78;;;1.75;;
44766;SDS011;30487;48.716;9.272;2023-07-20T05:42:22;6.07;;;1.73;;
44766;SDS011;30487;48.716;9.272;2023-07-20T05:44:48;4.97;;;1.80;;
44766;SDS011;30487;48.716;9.272;2023-07-20T05:47:14;4.53;;;1.83;;
44766;SDS011;30487;48.716;9.272;2023-07-20T05:49:40;3.25;;;1.60;;
44766;SDS011;30487;48.716;9.272;2023-07-20T05:52:06;4.97;;;1.55;;
44766;SDS011;30487;48.716;9.272;2023-07-20T05:54:31;6.15;;;1.80;;
44766;SDS011;30487;48.716;9.272;2023-07-20T05:56:57;3.40;;;1.50;;
44766;SDS011;30487;48.716;9.272;2023-07-20T05:59:23;7.05;;;1.65;;
44766;SDS011;30487;48.716;9.272;2023-07-20T06:01:49;3.80;;;1.55;;
44766;SDS011;30487;48.716;9.272;2023-07-20T06:04:14;4.20;;;1.85;;
44766;SDS011;30487;48.716;9.272;2023-07-20T06:06:40;7.47;;;1.80;;
44766;SDS011;30487;48.716;9.272;2023-07-20T06:09:06;4.28;;;1.63;;
44766;SDS011;30487;48.716;9.272;2023-07-20T06:11:36;3.58;;;1.45;;
44766;SDS011;30487;48.716;9.272;2023-07-20T06:14:02;5.38;;;1.55;;
44766;SDS011;30487;48.716;9.272;2023-07-20T06:16:28;3.67;;;1.63;;
44766;SDS011;30487;48.716;9.272;2023-07-20T06:18:53;3.45;;;1.92;;
44766;SDS011;30487;48.716;9.272;2023-07-20T06:21:20;3.45;;;1.75;;
44766;SDS011;30487;48.716;9.272;2023-07-20T06:23:45;2.85;;;1.58;;
44766;SDS011;30487;48.716;9.272;2023-07-20T06:26:11;3.00;;;1.60;;
44766;SDS011;30487;48.716;9.272;2023-07-20T06:28:36;6.03;;;1.80;;
44766;SDS011;30487;48.716;9.272;2023-07-20T06:31:02;4.05;;;1.88;;
44766;SDS011;30487;48.716;9.272;2023-07-20T06:33:28;3.45;;;1.55;;
44766;SDS011;30487;48.716;9.272;2023-07-20T06:35:54;3.67;;;1.88;;
44766;SDS011;30487;48.716;9.272;2023-07-20T06:38:22;3.90;;;1.70;;
44766;SDS011;30487;48.716;9.272;2023-07-20T06:40:48;6.90;;;1.75;;
44766;SDS011;30487;48.716;9.272;2023-07-20T06:43:14;5.32;;;1.65;;
44766;SDS011;30487;48.716;9.272;2023-07-20T06:45:40;4.22;;;1.80;;
44766;SDS011;30487;48.716;9.272;2023-07-20T06:48:06;7.75;;;1.60;;
44766;SDS011;30487;48.716;9.272;2023-07-20T06:50:31;5.15;;;1.40;;
44766;SDS011;30487;48.716;9.272;2023-07-20T06:52:57;4.63;;;1.50;;
44766;SDS011;30487;48.716;9.272;2023-07-20T06:55:23;3.42;;;1.70;;
44766;SDS011;30487;48.716;9.272;2023-07-20T06:57:49;5.05;;;1.50;;
44766;SDS011;30487;48.716;9.272;2023-07-20T07:00:15;5.70;;;1.80;;
44766;SDS011;30487;48.716;9.272;2023-07-20T07:02:41;6.15;;;1.70;;
44766;SDS011;30487;48.716;9.272;2023-07-20T07:05:07;4.22;;;1.70;;
44766;SDS011;30487;48.716;9.272;2023-07-20T07:07:32;4.22;;;1.40;;
44766;SDS011;30487;48.716;9.272;2023-07-20T07:10:00;6.82;;;1.90;;
44766;SDS011;30487;48.716;9.272;2023-07-20T07:12:26;6.22;;;1.83;;
44766;SDS011;30487;48.716;9.272;2023-07-20T07:14:51;4.10;;;1.80;;
44766;SDS011;30487;48.716;9.272;2023-07-20T07:17:17;3.78;;;1.70;;
44766;SDS011;30487;48.716;9.272;2023-07-20T07:19:43;4.47;;;1.85;;
44766;SDS011;30487;48.716;9.272;2023-07-20T07:22:09;5.32;;;1.77;;
44766;SDS011;30487;48.716;9.272;2023-07-20T07:24:35;4.88;;;1.70;;
44766;SDS011;30487;48.716;9.272;2023-07-20T07:27:01;6.25;;;1.90;;
44766;SDS011;30487;48.716;9.272;2023-07-20T07:29:27;3.75;;;1.70;;
44766;SDS011;30487;48.716;9.272;2023-07-20T07:31:53;3.60;;;1.40;;
44766;SDS011;30487;48.716;9.272;2023-07-20T07:34:18;4.70;;;2.00;;
44766;SDS011;30487;48.716;9.272;2023-07-20T07:36:44;3.72;;;1.42;;
44766;SDS011;30487;48.716;9.272;2023-07-20T07:39:10;5.93;;;1.55;;
44766;SDS011;30487;48.716;9.272;2023-07-20T07:41:36;3.75;;;1.52;;
44766;SDS011;30487;48.716;9.272;2023-07-20T07:44:01;5.15;;;1.77;;
44766;SDS011;30487;48.716;9.272;2023-07-20T07:46:27;5.07;;;1.73;;
44766;SDS011;30487;48.716;9.272;2023-07-20T07:48:52;7.32;;;1.90;;
44766;SDS011;30487;48.716;9.272;2023-07-20T07:51:18;6.13;;;1.80;;
44766;SDS011;30487;48.716;9.272;2023-07-20T07:53:45;3.90;;;1.60;;
44766;SDS011;30487;48.716;9.272;2023-07-20T07:56:11;4.93;;;1.88;;
44766;SDS011;30487;48.716;9.272;2023-07-20T07:58:37;4.28;;;1.77;;
44766;SDS011;30487;48.716;9.272;2023-07-20T08:01:02;3.88;;;1.85;;
44766;SDS011;30487;48.716;9.272;2023-07-20T08:03:29;3.72;;;1.58;;
44766;SDS011;30487;48.716;9.272;2023-07-20T08:05:54;3.75;;;1.40;;
44766;SDS011;30487;48.716;9.272;2023-07-20T08:08:24;6.05;;;2.03;;
44766;SDS011;30487;48.716;9.272;2023-07-20T08:10:52;5.10;;;1.80;;
44766;SDS011;30487;48.716;9.272;2023-07-20T08:13:20;4.65;;;1.85;;
44766;SDS011;30487;48.716;9.272;2023-07-20T08:15:46;5.30;;;1.60;;
44766;SDS011;30487;48.716;9.272;2023-07-20T08:18:15;7.32;;;1.75;;
44766;SDS011;30487;48.716;9.272;2023-07-20T08:20:43;3.78;;;1.60;;
44766;SDS011;30487;48.716;9.272;2023-07-20T08:23:09;3.40;;;1.80;;
44766;SDS011;30487;48.716;9.272;2023-07-20T08:25:37;5.05;;;1.70;;
44766;SDS011;30487;48.716;9.272;2023-07-20T08:28:06;5.95;;;1.77;;
44766;SDS011;30487;48.716;9.272;2023-07-20T08:30:45;6.60;;;1.85;;
44766;SDS011;30487;48.716;9.272;2023-07-20T08:33:18;4.40;;;1.65;;
44766;SDS011;30487;48.716;9.272;2023-07-20T08:35:44;4.78;;;1.50;;
44766;SDS011;30487;48.716;9.272;2023-07-20T08:38:10;6.30;;;1.77;;
44766;SDS011;30487;48.716;9.272;2023-07-20T08:40:39;3.15;;;1.50;;
44766;SDS011;30487;48.716;9.272;2023-07-20T08:43:06;4.50;;;1.85;;
44766;SDS011;30487;48.716;9.272;2023-07-20T08:45:32;4.80;;;1.52;;
44766;SDS011;30487;48.716;9.272;2023-07-20T08:47:59;5.93;;;1.73;;
44766;SDS011;30487;48.716;9.272;2023-07-20T08:50:28;2.70;;;1.60;;
44766;SDS011;30487;48.716;9.272;2023-07-20T08:52:56;4.53;;;1.60;;
44766;SDS011;30487;48.716;9.272;2023-07-20T08:55:23;5.25;;;1.67;;
44766;SDS011;30487;48.716;9.272;2023-07-20T08:57:50;4.20;;;1.70;;
44766;SDS011;30487;48.716;9.272;2023-07-20T09:00:17;4.97;;;1.80;;
44766;SDS011;30487;48.716;9.272;2023-07-20T09:02:46;6.78;;;1.80;;
44766;SDS011;30487;48.716;9.272;2023-07-20T09:05:14;3.30;;;1.55;;
44766;SDS011;30487;48.716;9.272;2023-07-20T09:07:40;7.50;;;1.77;;
44766;SDS011;30487;48.716;9.272;2023-07-20T09:10:06;5.88;;;1.65;;
44766;SDS011;30487;48.716;9.272;2023-07-20T09:12:35;4.18;;;1.60;;
44766;SDS011;30487;48.716;9.272;2023-07-20T09:15:03;2.35;;;1.33;;
44766;SDS011;30487;48.716;9.272;2023-07-20T09:17:29;5.07;;;1.52;;
44766;SDS011;30487;48.716;9.272;2023-07-20T09:19:55;4.18;;;1.70;;
44766;SDS011;30487;48.716;9.272;2023-07-20T09:22:20;8.43;;;1.50;;
44766;SDS011;30487;48.716;9.272;2023-07-20T09:24:46;4.43;;;1.50;;
44766;SDS011;30487;48.716;9.272;2023-07-20T09:27:12;5.93;;;1.60;;
44766;SDS011;30487;48.716;9.272;2023-07-20T09:29:52;3.25;;;1.70;;
44766;SDS011;30487;48.716;9.272;2023-07-20T09:32:19;4.10;;;1.50;;
44766;SDS011;30487;48.716;9.272;2023-07-20T09:34:45;5.22;;;1.42;;
44766;SDS011;30487;48.716;9.272;2023-07-20T09:37:11;3.22;;;1.48;;
44766;SDS011;30487;48.716;9.272;2023-07-20T09:39:46;5.53;;;1.70;;
44766;SDS011;30487;48.716;9.272;2023-07-20T09:42:11;3.28;;;1.50;;
44766;SDS011;30487;48.716;9.272;2023-07-20T09:44:38;5.55;;;1.60;;
44766;SDS011;30487;48.716;9.272;2023-07-20T09:47:04;4.85;;;1.63;;
44766;SDS011;30487;48.716;9.272;2023-07-20T09:49:30;3.05;;;1.40;;
44766;SDS011;30487;48.716;9.272;2023-07-20T09:51:59;2.80;;;1.50;;
44766;SDS011;30487;48.716;9.272;2023-07-20T09:54:27;3.42;;;1.48;;
44766;SDS011;30487;48.716;9.272;2023-07-20T09:56:54;3.35;;;1.70;;
44766;SDS011;30487;48.716;9.272;2023-07-20T09:59:21;5.20;;;1.60;;
44766;SDS011;30487;48.716;9.272;2023-07-20T10:01:47;4.10;;;1.50;;
44766;SDS011;30487;48.716;9.272;2023-07-20T10:04:14;6.15;;;1.58;;
44766;SDS011;30487;48.716;9.272;2023-07-20T10:06:43;9.25;;;1.80;;
44766;SDS011;30487;48.716;9.272;2023-07-20T10:09:12;3.88;;;1.50;;
44766;SDS011;30487;48.716;9.272;2023-07-20T10:11:41;5.75;;;1.80;;
44766;SDS011;30487;48.716;9.272;2023-07-20T10:14:16;6.60;;;1.50;;
44766;SDS011;30487;48.716;9.272;2023-07-20T10:16:46;3.50;;;1.50;;
44766;SDS011;30487;48.716;9.272;2023-07-20T10:19:23;4.07;;;1.40;;
44766;SDS011;30487;48.716;9.272;2023-07-20T10:22:02;3.80;;;1.65;;
44766;SDS011;30487;48.716;9.272;2023-07-20T10:24:31;3.13;;;1.33;;
44766;SDS011;30487;48.716;9.272;2023-07-20T10:26:57;6.50;;;1.65;;
44766;SDS011;30487;48.716;9.272;2023-07-20T10:29:23;4.93;;;1.63;;
44766;SDS011;30487;48.716;9.272;2023-07-20T10:31:52;4.65;;;1.38;;
44766;SDS011;30487;48.716;9.272;2023-07-20T10:34:19;5.15;;;1.70;;
44766;SDS011;30487;48.716;9.272;2023-07-20T10:36:45;3.45;;;1.50;;
44766;SDS011;30487;48.716;9.272;2023-07-20T10:39:23;4.35;;;1.25;;
44766;SDS011;30487;48.716;9.272;2023-07-20T10:41:50;2.17;;;1.30;;
44766;SDS011;30487;48.716;9.272;2023-07-20T10:44:37;3.97;;;1.30;;
44766;SDS011;30487;48.716;9.272;2023-07-20T10:47:11;2.17;;;1.17;;
44766;SDS011;30487;48.716;9.272;2023-07-20T10:52:21;5.20;;;1.38;;
44766;SDS011;30487;48.716;9.272;2023-07-20T10:54:47;4.10;;;1.52;;
44766;SDS011;30487;48.716;9.272;2023-07-20T10:57:29;4.32;;;1.58;;
44766;SDS011;30487;48.716;9.272;2023-07-20T11:00:09;7.10;;;1.38;;
44766;SDS011;30487;48.716;9.272;2023-07-20T11:02:42;8.15;;;1.50;;
44766;SDS011;30487;48.716;9.272;2023-07-20T11:05:08;4.20;;;1.40;;
44766;SDS011;30487;48.716;9.272;2023-07-20T11:08:04;4.63;;;1.30;;
44766;SDS011;30487;48.716;9.272;2023-07-20T11:10:31;6.65;;;1.60;;
44766;SDS011;30487;48.716;9.272;2023-07-20T11:13:16;2.25;;;1.10;;
44766;SDS011;30487;48.716;9.272;2023-07-20T11:15:46;3.28;;;1.23;;
44766;SDS011;30487;48.716;9.272;2023-07-20T11:18:26;3.28;;;1.13;;
44766;SDS011;30487;48.716;9.272;2023-07-20T11:20:52;3.15;;;1.20;;
44766;SDS011;30487;48.716;9.272;2023-07-20T11:23:21;2.75;;;1.15;;
44766;SDS011;30487;48.716;9.272;2023-07-20T11:25:47;3.15;;;1.20;;
44766;SDS011;30487;48.716;9.272;2023-07-20T11:28:14;2.33;;;1.48;;
44766;SDS011;30487;48.716;9.272;2023-07-20T11:30:40;3.15;;;1.48;;
44766;SDS011;30487;48.716;9.272;2023-07-20T11:33:08;8.13;;;1.30;;
44766;SDS011;30487;48.716;9.272;2023-07-20T11:35:43;4.93;;;1.48;;
44766;SDS011;30487;48.716;9.272;2023-07-20T11:38:11;3.35;;;1.33;;
44766;SDS011;30487;48.716;9.272;2023-07-20T11:40:42;2.40;;;1.20;;
44766;SDS011;30487;48.716;9.272;2023-07-20T11:43:11;3.47;;;1.38;;
44766;SDS011;30487;48.716;9.272;2023-07-20T11:45:39;2.30;;;1.00;;
44766;SDS011;30487;48.716;9.272;2023-07-20T11:48:05;2.55;;;1.15;;
44766;SDS011;30487;48.716;9.272;2023-07-20T11:50:30;2.33;;;1.23;;
44766;SDS011;30487;48.716;9.272;2023-07-20T11:52:57;2.25;;;1.00;;
44766;SDS011;30487;48.716;9.272;2023-07-20T11:55:22;3.22;;;1.33;;
44766;SDS011;30487;48.716;9.272;2023-07-20T11:58:01;2.08;;;1.25;;
44766;SDS011;30487;48.716;9.272;2023-07-20T12:00:28;5.15;;;1.20;;
44766;SDS011;30487;48.716;9.272;2023-07-20T12:02:53;3.90;;;1.13;;
44766;SDS011;30487;48.716;9.272;2023-07-20T12:05:19;2.72;;;1.20;;
44766;SDS011;30487;48.716;9.272;2023-07-20T12:07:47;1.85;;;1.10;;
44766;SDS011;30487;48.716;9.272;2023-07-20T12:10:16;2.85;;;1.15;;
44766;SDS011;30487;48.716;9.272;2023-07-20T12:12:49;4.20;;;1.30;;
44766;SDS011;30487;48.716;9.272;2023-07-20T12:15:15;2.97;;;1.20;;
44766;SDS011;30487;48.716;9.272;2023-07-20T12:17:45;2.35;;;1.25;;
44766;SDS011;30487;48.716;9.272;2023-07-20T12:20:13;2.42;;;1.17;;
44766;SDS011;30487;48.716;9.272;2023-07-20T12:22:56;3.33;;;1.38;;
44766;SDS011;30487;48.716;9.272;2023-07-20T12:25:38;2.50;;;1.10;;
44766;SDS011;30487;48.716;9.272;2023-07-20T12:28:07;2.05;;;1.10;;
44766;SDS011;30487;48.716;9.272;2023-07-20T12:30:34;2.88;;;1.20;;
44766;SDS011;30487;48.716;9.272;2023-07-20T12:33:00;3.55;;;1.20;;
44766;SDS011;30487;48.716;9.272;2023-07-20T12:35:27;3.78;;;0.95;;
44766;SDS011;30487;48.716;9.272;2023-07-20T12:37:54;2.70;;;1.10;;
44766;SDS011;30487;48.716;9.272;2023-07-20T12:40:20;3.88;;;1.20;;
44766;SDS011;30487;48.716;9.272;2023-07-20T12:42:46;3.42;;;1.45;;
44766;SDS011;30487;48.716;9.272;2023-07-20T12:45:11;1.92;;;1.33;;
44766;SDS011;30487;48.716;9.272;2023-07-20T12:47:38;3.30;;;1.15;;
44766;SDS011;30487;48.716;9.272;2023-07-20T12:50:04;2.65;;;1.10;;
44766;SDS011;30487;48.716;9.272;2023-07-20T12:52:31;2.03;;;1.02;;
44766;SDS011;30487;48.716;9.272;2023-07-20T12:54:57;2.65;;;1.20;;
44766;SDS011;30487;48.716;9.272;2023-07-20T12:57:23;3.58;;;1.10;;
44766;SDS011;30487;48.716;9.272;2023-07-20T12:59:48;3.65;;;1.20;;
44766;SDS011;30487;48.716;9.272;2023-07-20T13:02:14;1.75;;;1.10;;
44766;SDS011;30487;48.716;9.272;2023-07-20T13:04:39;2.70;;;1.10;;
44766;SDS011;30487;48.716;9.272;2023-07-20T13:07:07;2.85;;;1.13;;
44766;SDS011;30487;48.716;9.272;2023-07-20T13:09:36;3.88;;;1.23;;
44766;SDS011;30487;48.716;9.272;2023-07-20T13:12:01;1.50;;;0.98;;
44766;SDS011;30487;48.716;9.272;2023-07-20T13:14:27;3.28;;;1.23;;
44766;SDS011;30487;48.716;9.272;2023-07-20T13:16:54;4.28;;;1.20;;
44766;SDS011;30487;48.716;9.272;2023-07-20T13:19:22;3.20;;;1.10;;
44766;SDS011;30487;48.716;9.272;2023-07-20T13:21:48;4.15;;;1.30;;
44766;SDS011;30487;48.716;9.272;2023-07-20T13:24:13;3.60;;;1.40;;
44766;SDS011;30487;48.716;9.272;2023-07-20T13:26:39;4.68;;;1.45;;
44766;SDS011;30487;48.716;9.272;2023-07-20T13:29:04;2.63;;;1.20;;
44766;SDS011;30487;48.716;9.272;2023-07-20T13:31:30;4.03;;;1.17;;
44766;SDS011;30487;48.716;9.272;2023-07-20T13:33:56;2.05;;;1.00;;
44766;SDS011;30487;48.716;9.272;2023-07-20T13:36:22;3.78;;;1.10;;
44766;SDS011;30487;48.716;9.272;2023-07-20T13:38:48;2.78;;;1.20;;
44766;SDS011;30487;48.716;9.272;2023-07-20T13:41:14;3.45;;;1.10;;
44766;SDS011;30487;48.716;9.272;2023-07-20T13:43:41;2.58;;;0.90;;
44766;SDS011;30487;48.716;9.272;2023-07-20T13:46:07;2.38;;;1.02;;
44766;SDS011;30487;48.716;9.272;2023-07-20T13:48:32;2.60;;;1.45;;
44766;SDS011;30487;48.716;9.272;2023-07-20T13:50:58;2.10;;;1.10;;
44766;SDS011;30487;48.716;9.272;2023-07-20T13:53:23;2.28;;;1.17;;
44766;SDS011;30487;48.716;9.272;2023-07-20T13:55:49;3.15;;;1.35;;
44766;SDS011;30487;48.716;9.272;2023-07-20T13:58:14;4.25;;;1.30;;
44766;SDS011;30487;48.716;9.272;2023-07-20T14:00:40;1.85;;;1.13;;
44766;SDS011;30487;48.716;9.272;2023-07-20T14:03:06;2.13;;;1.08;;
44766;SDS011;30487;48.716;9.272;2023-07-20T14:05:31;2.35;;;1.20;;
44766;SDS011;30487;48.716;9.272;2023-07-20T14:07:57;1.90;;;1.10;;
44766;SDS011;30487;48.716;9.272;2023-07-20T14:10:22;2.78;;;1.20;;
44766;SDS011;30487;48.716;9.272;2023-07-20T14:12:48;3.38;;;1.20;;
44766;SDS011;30487;48.716;9.272;2023-07-20T14:15:14;3.75;;;1.13;;
44766;SDS011;30487;48.716;9.272;2023-07-20T14:17:39;2.35;;;1.10;;
44766;SDS011;30487;48.716;9.272;2023-07-20T14:20:05;1.80;;;1.13;;
44766;SDS011;30487;48.716;9.272;2023-07-20T14:22:31;2.50;;;1.13;;
44766;SDS011;30487;48.716;9.272;2023-07-20T14:24:57;3.88;;;1.10;;
44766;SDS011;30487;48.716;9.272;2023-07-20T14:27:23;2.60;;;1.35;;
44766;SDS011;30487;48.716;9.272;2023-07-20T14:29:49;3.35;;;1.02;;
44766;SDS011;30487;48.716;9.272;2023-07-20T14:32:14;2.45;;;1.23;;
44766;SDS011;30487;48.716;9.272;2023-07-20T14:34:40;5.63;;;1.30;;
44766;SDS011;30487;48.716;9.272;2023-07-20T14:37:06;3.25;;;1.05;;
44766;SDS011;30487;48.716;9.272;2023-07-20T14:39:32;2.58;;;1.10;;
44766;SDS011;30487;48.716;9.272;2023-07-20T14:41:57;2.97;;;1.13;;
44766;SDS011;30487;48.716;9.272;2023-07-20T14:44:23;2.35;;;1.00;;
44766;SDS011;30487;48.716;9.272;2023-07-20T14:46:49;1.85;;;0.93;;
44766;SDS011;30487;48.716;9.272;2023-07-20T14:49:15;10.30;;;1.50;;
44766;SDS011;30487;48.716;9.272;2023-07-20T14:51:41;2.17;;;1.20;;
44766;SDS011;30487;48.716;9.272;2023-07-20T14:54:11;1.92;;;1.17;;
44766;SDS011;30487;48.716;9.272;2023-07-20T14:56:38;4.65;;;1.08;;
44766;SDS011;30487;48.716;9.272;2023-07-20T14:59:04;1.90;;;0.90;;
44766;SDS011;30487;48.716;9.272;2023-07-20T15:01:31;3.75;;;1.08;;